Time;durP1;ratioP1;P1;durP2;ratioP2;P2;SDS_P1;SDS_P2;PMS_P1;PMS_P2;Temp;Humidity;BMP_temperature;BMP_pressure;BME280_temperature;BME280_humidity;BME280_pressure;Samples;Min_cycle;Max_cycle;Signal;HPM_P1;HPM_P2
2022/07/09 00:01:34;;;;;;;9.05;6.13;;;20.20;99.90;;;;;;5039908;28;20471;-96
2022/07/09 00:04:09;;;;;;;14.77;7.15;;;20.20;99.90;;;;;;5045424;28;20057;-94
2022/07/09 00:06:37;;;;;;;18.52;6.93;;;20.20;99.90;;;;;;5042425;28;20049;-96
2022/07/09 00:09:12;;;;;;;16.38;7.68;;;20.20;99.90;;;;;;5064223;28;20044;-96
2022/07/09 00:11:39;;;;;;;9.65;7.55;;;20.10;99.90;;;;;;5042966;28;20133;-96
2022/07/09 00:14:08;;;;;;;15.25;7.45;;;20.10;99.90;;;;;;5056233;28;20026;-94
2022/07/09 00:16:57;;;;;;;14.00;7.00;;;20.20;99.90;;;;;;5056612;28;20022;-96
2022/07/09 01:33:48;;;;;;;15.37;7.10;;;19.90;99.90;;;;;;4799438;23;20042;-94
2022/07/09 01:36:16;;;;;;;11.80;7.95;;;19.90;99.90;;;;;;4984878;28;20030;-93
2022/07/09 01:38:45;;;;;;;14.75;7.40;;;19.90;99.90;;;;;;5001048;28;20034;-95
2022/07/09 01:41:12;;;;;;;10.88;7.50;;;20.00;99.90;;;;;;5018860;28;20041;-94
2022/07/09 01:43:41;;;;;;;13.18;8.43;;;20.10;99.90;;;;;;5005507;28;20018;-95
2022/07/09 01:46:07;;;;;;;15.00;7.80;;;20.10;99.90;;;;;;5001035;28;20092;-93
2022/07/09 01:48:35;;;;;;;12.57;7.45;;;20.10;99.90;;;;;;5006298;28;20025;-94
2022/07/09 01:51:02;;;;;;;8.88;7.43;;;20.20;99.90;;;;;;5001019;28;20034;-94
2022/07/09 01:53:33;;;;;;;14.73;7.65;;;20.20;99.90;;;;;;4985119;28;20056;-94
2022/07/09 01:56:03;;;;;;;13.85;7.78;;;20.20;99.90;;;;;;5008241;28;20030;-95
2022/07/09 01:58:31;;;;;;;13.73;9.32;;;20.30;99.90;;;;;;4981053;28;20038;-95
2022/07/09 02:00:57;;;;;;;15.48;8.73;;;20.20;99.90;;;;;;4998281;28;20026;-95
2022/07/09 02:03:23;;;;;;;14.18;8.82;;;20.30;99.90;;;;;;4982766;28;20400;-95
2022/07/09 02:05:49;;;;;;;16.80;9.43;;;20.30;99.90;;;;;;4987117;28;20061;-94
2022/07/09 02:08:17;;;;;;;14.52;9.02;;;20.40;99.90;;;;;;5010100;28;20033;-93
2022/07/09 02:10:43;;;;;;;25.90;9.93;;;20.40;99.90;;;;;;5008890;28;20040;-94
2022/07/09 02:13:09;;;;;;;17.58;10.13;;;20.40;99.90;;;;;;5004127;28;20432;-94
2022/07/09 02:15:35;;;;;;;23.92;10.27;;;20.50;99.90;;;;;;5004049;28;20068;-94
2022/07/09 02:18:01;;;;;;;16.17;9.38;;;20.50;99.90;;;;;;5001367;28;20040;-94
2022/07/09 02:20:32;;;;;;;17.58;10.25;;;20.50;99.90;;;;;;5013364;28;20072;-96
2022/07/09 02:22:58;;;;;;;27.20;10.70;;;20.50;99.90;;;;;;5004122;28;20037;-96
2022/07/09 02:25:27;;;;;;;17.95;9.85;;;20.60;99.90;;;;;;5011157;28;20025;-94
2022/07/09 02:28:03;;;;;;;23.38;11.23;;;20.60;99.90;;;;;;5021730;28;20050;-96
2022/07/09 02:30:36;;;;;;;27.98;12.05;;;20.70;99.90;;;;;;4983226;28;20023;-96
2022/07/09 02:33:08;;;;;;;24.20;11.55;;;20.70;99.90;;;;;;5016208;28;20100;-95
2022/07/09 02:35:34;;;;;;;21.58;11.35;;;20.80;99.90;;;;;;5017681;28;20088;-95
2022/07/09 02:38:21;;;;;;;25.80;12.80;;;20.80;99.90;;;;;;4985808;28;20109;-94
2022/07/09 02:41:11;;;;;;;24.05;12.55;;;20.90;99.90;;;;;;4987691;28;20053;-95
2022/07/09 02:43:38;;;;;;;28.23;12.73;;;21.00;99.90;;;;;;5019054;28;20026;-94
2022/07/09 02:46:04;;;;;;;31.50;12.40;;;21.10;99.90;;;;;;5013040;28;20057;-93
2022/07/09 02:48:53;;;;;;;25.13;11.95;;;21.10;99.90;;;;;;4978876;28;20063;-96
2022/07/09 02:51:22;;;;;;;23.60;13.25;;;21.10;99.90;;;;;;5009750;28;20034;-95
2022/07/09 02:53:53;;;;;;;21.85;12.65;;;21.10;99.90;;;;;;5007985;28;20042;-96
2022/07/09 02:56:22;;;;;;;22.50;12.50;;;21.10;99.90;;;;;;4990423;28;20023;-96
2022/07/09 02:58:48;;;;;;;22.38;11.98;;;21.00;99.90;;;;;;4991266;28;20081;-94
2022/07/09 03:01:14;;;;;;;25.75;13.85;;;21.00;99.90;;;;;;4994855;28;20027;-92
2022/07/09 03:03:42;;;;;;;19.73;12.60;;;21.00;99.90;;;;;;5003874;28;20053;-92
2022/07/09 03:06:08;;;;;;;25.92;12.82;;;21.00;99.90;;;;;;4990204;28;20039;-93
2022/07/09 03:08:38;;;;;;;24.23;11.93;;;21.00;99.90;;;;;;5005079;28;20025;-94
2022/07/09 03:11:06;;;;;;;25.20;12.43;;;21.00;99.90;;;;;;5011841;28;20027;-93
2022/07/09 03:13:33;;;;;;;25.33;12.18;;;21.10;99.90;;;;;;5011560;28;20017;-94
2022/07/09 03:15:59;;;;;;;20.10;12.70;;;21.10;99.90;;;;;;4997762;28;20046;-93
2022/07/09 03:18:25;;;;;;;25.67;12.88;;;21.10;99.90;;;;;;5005855;28;20041;-94
2022/07/09 03:20:51;;;;;;;18.15;11.85;;;21.10;99.90;;;;;;5015924;28;20064;-94
2022/07/09 03:23:17;;;;;;;27.48;13.65;;;21.10;99.90;;;;;;4970126;28;20090;-93
2022/07/09 03:25:43;;;;;;;26.55;11.40;;;21.20;99.90;;;;;;4969622;28;20037;-94
2022/07/09 03:28:10;;;;;;;27.48;12.90;;;21.30;99.90;;;;;;4979952;28;20054;-94
2022/07/09 03:30:38;;;;;;;35.30;14.90;;;21.40;99.90;;;;;;4998204;28;20028;-95
2022/07/09 03:33:04;;;;;;;23.55;13.02;;;21.50;99.90;;;;;;4996697;28;20038;-94
2022/07/09 03:35:30;;;;;;;24.20;13.57;;;21.70;99.90;;;;;;4985791;28;20031;-94
2022/07/09 03:37:56;;;;;;;24.20;15.18;;;21.70;99.90;;;;;;4985010;28;20031;-94
2022/07/09 03:40:22;;;;;;;26.45;15.38;;;21.70;99.90;;;;;;5017068;28;20030;-95
2022/07/09 03:42:51;;;;;;;25.38;15.55;;;21.70;99.90;;;;;;5008061;28;20491;-94
2022/07/09 03:45:17;;;;;;;21.23;13.18;;;21.60;99.90;;;;;;4998569;28;20035;-94
2022/07/09 03:47:42;;;;;;;21.33;15.10;;;21.60;99.90;;;;;;5011641;28;20029;-95
2022/07/09 03:50:09;;;;;;;26.77;17.10;;;21.70;99.90;;;;;;5009037;28;20103;-95
2022/07/09 03:52:35;;;;;;;30.90;17.30;;;21.70;99.90;;;;;;4993414;28;20026;-94
2022/07/09 03:55:01;;;;;;;33.92;17.25;;;21.70;99.90;;;;;;5004208;28;20030;-94
2022/07/09 03:57:27;;;;;;;31.52;17.88;;;21.60;99.90;;;;;;4983629;28;20026;-92
2022/07/09 03:59:52;;;;;;;32.63;17.70;;;21.60;99.90;;;;;;5007039;28;20039;-94
2022/07/09 04:02:18;;;;;;;29.55;17.83;;;21.60;99.90;;;;;;5014453;28;20124;-94
2022/07/09 04:04:44;;;;;;;29.05;16.88;;;21.70;99.90;;;;;;4991408;28;20033;-95
2022/07/09 04:07:10;;;;;;;28.30;16.50;;;21.70;99.90;;;;;;5014564;28;20022;-95
2022/07/09 04:09:36;;;;;;;22.08;15.68;;;21.70;99.90;;;;;;4996873;28;20057;-94
2022/07/09 04:12:03;;;;;;;18.80;14.30;;;21.60;99.90;;;;;;4992273;28;20076;-95
2022/07/09 04:14:28;;;;;;;25.60;13.32;;;21.60;99.90;;;;;;4999122;28;20027;-94
2022/07/09 04:16:54;;;;;;;23.48;13.65;;;21.70;99.90;;;;;;4982685;28;20018;-95
2022/07/09 04:19:20;;;;;;;19.77;13.60;;;21.90;99.90;;;;;;4984728;28;20033;-95
2022/07/09 04:21:46;;;;;;;23.10;14.68;;;22.10;99.90;;;;;;4983250;28;20054;-94
2022/07/09 04:24:12;;;;;;;23.73;16.10;;;22.30;99.90;;;;;;4990604;28;20551;-94
2022/07/09 04:26:38;;;;;;;26.90;15.13;;;22.50;99.90;;;;;;4997375;28;20387;-94
2022/07/09 04:29:05;;;;;;;25.83;14.82;;;22.50;99.90;;;;;;4979992;28;20019;-94
2022/07/09 04:31:31;;;;;;;;;;;22.50;99.90;;;;;;4984737;28;20022;-93
2022/07/09 04:33:56;;;;;;;26.33;13.63;;;22.60;99.90;;;;;;4986689;28;19925;-94
2022/07/09 04:36:25;;;;;;;22.23;14.15;;;22.60;99.90;;;;;;4984056;28;20035;-92
2022/07/09 04:38:51;;;;;;;22.13;13.00;;;22.70;99.90;;;;;;4991127;28;20085;-92
2022/07/09 04:41:17;;;;;;;21.15;13.55;;;22.70;99.90;;;;;;4992442;28;20031;-91
2022/07/09 04:43:42;;;;;;;21.70;16.00;;;22.70;99.90;;;;;;4978595;28;20501;-91
2022/07/09 04:46:08;;;;;;;25.00;16.90;;;22.70;99.90;;;;;;4975681;28;20102;-91
2022/07/09 04:48:34;;;;;;;25.50;17.15;;;22.80;99.90;;;;;;4977510;28;20369;-91
2022/07/09 04:51:00;;;;;;;23.65;15.40;;;22.90;99.90;;;;;;4979653;28;20061;-89
2022/07/09 04:53:26;;;;;;;19.95;14.43;;;23.10;99.90;;;;;;4988821;28;20054;-92
2022/07/09 04:55:52;;;;;;;15.98;10.18;;;23.20;99.90;;;;;;4977129;28;20126;-91
2022/07/09 04:58:18;;;;;;;14.93;10.20;;;23.40;99.90;;;;;;4978681;28;20034;-90
2022/07/09 05:00:43;;;;;;;13.00;10.35;;;23.40;99.90;;;;;;4974776;28;20424;-90
2022/07/09 05:03:09;;;;;;;12.23;10.43;;;23.50;99.90;;;;;;4979679;28;20027;-91
2022/07/09 05:05:35;;;;;;;13.25;9.52;;;23.60;99.90;;;;;;4990341;28;20030;-90
2022/07/09 05:08:01;;;;;;;14.13;9.98;;;23.70;99.90;;;;;;4977671;28;20074;-91
2022/07/09 05:10:27;;;;;;;8.32;6.82;;;23.80;99.90;;;;;;4977984;28;20397;-89
2022/07/09 05:12:53;;;;;;;9.55;6.35;;;23.90;99.90;;;;;;4975404;28;20077;-90
2022/07/09 05:15:19;;;;;;;8.98;7.45;;;24.20;99.90;;;;;;4976709;28;20019;-88
2022/07/09 05:17:45;;;;;;;11.90;7.45;;;24.70;99.90;;;;;;4968001;28;20019;-88
2022/07/09 05:20:11;;;;;;;12.95;6.88;;;25.50;99.90;;;;;;4979099;28;20038;-89
2022/07/09 05:22:40;;;;;;;10.52;6.88;;;26.20;99.90;;;;;;4980344;28;20027;-89
2022/07/09 05:25:07;;;;;;;9.40;7.25;;;27.40;99.90;;;;;;4977646;28;20062;-88
2022/07/09 05:27:40;;;;;;;10.15;5.45;;;27.90;97.10;;;;;;4965249;28;20032;-88
2022/07/09 05:30:14;;;;;;;9.02;5.75;;;28.60;94.10;;;;;;4972521;28;20109;-89
2022/07/09 05:32:41;;;;;;;9.80;5.88;;;29.30;89.20;;;;;;4980503;28;20025;-88
2022/07/09 05:35:08;;;;;;;12.48;5.03;;;29.50;82.70;;;;;;4982349;28;20034;-89
2022/07/09 05:37:39;;;;;;;9.75;5.35;;;29.10;75.60;;;;;;4985187;28;20027;-88
2022/07/09 05:40:08;;;;;;;8.50;4.63;;;28.30;79.90;;;;;;4986881;28;20035;-90
2022/07/09 05:42:34;;;;;;;7.10;5.35;;;27.80;82.40;;;;;;4976405;28;20027;-89
2022/07/09 05:44:59;;;;;;;6.75;4.25;;;27.50;76.50;;;;;;4985857;28;20046;-88
2022/07/09 05:47:25;;;;;;;9.65;4.38;;;27.40;82.30;;;;;;4999347;28;20412;-88
2022/07/09 05:49:51;;;;;;;5.63;3.97;;;27.50;79.00;;;;;;4993648;28;20034;-84
2022/07/09 05:52:17;;;;;;;7.00;4.35;;;27.10;72.70;;;;;;4987442;28;20050;-88
2022/07/09 05:54:43;;;;;;;6.97;4.60;;;26.40;75.70;;;;;;5004183;28;20521;-84
2022/07/09 05:57:09;;;;;;;4.50;3.55;;;26.00;77.20;;;;;;5005798;28;20032;-86
2022/07/09 05:59:35;;;;;;;7.88;3.65;;;26.00;75.30;;;;;;5003186;28;20030;-87
2022/07/09 06:02:02;;;;;;;6.28;3.60;;;26.20;83.70;;;;;;5004261;28;20036;-87
2022/07/09 06:04:29;;;;;;;8.93;3.67;;;26.60;86.60;;;;;;4996264;28;20042;-87
2022/07/09 06:06:55;;;;;;;10.48;3.90;;;26.90;86.30;;;;;;4991463;28;20026;-84
2022/07/09 06:09:21;;;;;;;4.20;3.50;;;26.90;77.30;;;;;;4993726;28;20069;-88
2022/07/09 06:11:46;;;;;;;6.28;3.88;;;26.80;82.50;;;;;;4996988;28;20034;-86
2022/07/09 06:14:12;;;;;;;4.70;2.58;;;27.00;81.00;;;;;;4983150;28;20026;-90
2022/07/09 06:16:38;;;;;;;5.60;3.10;;;27.50;77.90;;;;;;4986212;28;20372;-91
2022/07/09 06:19:04;;;;;;;4.53;2.75;;;28.00;76.60;;;;;;4986712;28;20023;-90
2022/07/09 06:21:30;;;;;;;4.90;3.50;;;28.10;71.90;;;;;;4968735;28;20023;-91
2022/07/09 06:23:56;;;;;;;4.55;3.28;;;28.90;71.50;;;;;;4998796;28;20045;-90
2022/07/09 06:26:22;;;;;;;6.75;3.42;;;30.30;68.20;;;;;;4980352;28;20097;-93
2022/07/09 06:28:48;;;;;;;8.95;4.45;;;31.90;60.90;;;;;;4987704;28;20467;-84
2022/07/09 06:31:14;;;;;;;8.10;4.25;;;32.70;57.60;;;;;;4996193;28;20057;-86
2022/07/09 06:33:40;;;;;;;3.90;2.87;;;33.70;54.60;;;;;;4996070;28;20035;-87
2022/07/09 06:36:06;;;;;;;9.23;3.13;;;35.90;46.80;;;;;;5000277;28;20527;-89
2022/07/09 06:38:32;;;;;;;5.95;3.03;;;35.90;43.90;;;;;;4998763;28;20033;-91
2022/07/09 06:40:58;;;;;;;3.87;3.30;;;34.90;42.60;;;;;;4979446;28;20023;-86
2022/07/09 06:43:24;;;;;;;3.40;3.00;;;33.20;44.80;;;;;;4999753;28;20645;-83
2022/07/09 06:45:49;;;;;;;9.60;3.07;;;31.90;46.80;;;;;;4996218;28;20085;-84
2022/07/09 06:48:15;;;;;;;3.25;2.47;;;31.00;48.50;;;;;;4980714;28;20033;-87
2022/07/09 06:50:41;;;;;;;14.73;3.17;;;30.10;49.80;;;;;;5001591;28;20030;-86
2022/07/09 06:53:08;;;;;;;4.80;2.88;;;29.30;51.30;;;;;;5005176;28;20045;-83
2022/07/09 06:55:33;;;;;;;4.35;2.90;;;28.60;51.80;;;;;;4982802;28;20034;-83
2022/07/09 06:58:00;;;;;;;5.78;3.30;;;27.90;55.30;;;;;;4981036;28;20119;-85
2022/07/09 07:00:25;;;;;;;6.65;2.92;;;27.70;53.70;;;;;;4982292;28;20029;-84
2022/07/09 07:02:51;;;;;;;3.08;2.35;;;27.70;54.30;;;;;;4997907;28;20411;-83
2022/07/09 07:05:17;;;;;;;3.85;2.42;;;27.80;54.60;;;;;;4997234;28;20112;-84
2022/07/09 07:07:43;;;;;;;3.40;2.28;;;27.80;54.90;;;;;;4997124;28;20049;-85
2022/07/09 07:10:09;;;;;;;5.53;2.72;;;27.90;54.20;;;;;;4997667;28;20026;-84
2022/07/09 07:12:35;;;;;;;5.00;2.63;;;27.90;53.90;;;;;;4978455;28;20026;-83
2022/07/09 07:15:01;;;;;;;5.57;2.80;;;28.00;53.70;;;;;;4996347;28;20029;-84
2022/07/09 07:17:27;;;;;;;8.38;2.95;;;28.90;53.50;;;;;;4993830;28;20544;-82
2022/07/09 07:19:52;;;;;;;7.00;2.78;;;30.10;51.90;;;;;;4978501;28;20502;-84
2022/07/09 07:22:19;;;;;;;7.63;2.73;;;31.20;50.20;;;;;;4997786;28;20073;-83
2022/07/09 07:24:45;;;;;;;5.43;2.85;;;32.90;47.40;;;;;;4980727;28;20093;-84
2022/07/09 07:27:10;;;;;;;5.57;2.80;;;33.50;45.50;;;;;;4984887;28;20034;-82
2022/07/09 07:29:37;;;;;;;7.80;2.87;;;32.90;44.10;;;;;;4996792;28;20041;-84
2022/07/09 07:32:03;;;;;;;2.92;2.60;;;32.00;45.30;;;;;;4971162;28;20054;-83
2022/07/09 07:34:29;;;;;;;5.35;2.88;;;30.90;46.50;;;;;;4978730;28;20043;-85
2022/07/09 07:36:55;;;;;;;3.85;3.22;;;30.00;48.20;;;;;;4979948;28;20021;-84
2022/07/09 07:39:21;;;;;;;13.57;4.85;;;28.40;50.70;;;;;;4999570;28;20491;-84
2022/07/09 07:41:48;;;;;;;4.68;3.15;;;28.10;51.70;;;;;;5006706;28;20026;-85
2022/07/09 07:44:14;;;;;;;26.42;5.10;;;27.50;54.10;;;;;;4999154;28;20433;-83
2022/07/09 07:46:40;;;;;;;5.88;4.65;;;27.00;55.30;;;;;;4997928;28;20038;-84
2022/07/09 07:49:06;;;;;;;21.98;6.70;;;26.60;56.10;;;;;;4998089;28;20023;-83
2022/07/09 07:51:32;;;;;;;11.93;4.97;;;26.40;57.30;;;;;;4980851;28;20073;-85
2022/07/09 07:54:04;;;;;;;5.40;4.95;;;26.20;57.50;;;;;;5004088;28;20026;-84
2022/07/09 07:56:33;;;;;;;7.65;4.78;;;25.70;58.10;;;;;;5003521;28;20037;-86
2022/07/09 07:58:59;;;;;;;14.23;5.20;;;25.20;59.60;;;;;;5001580;28;20042;-82
2022/07/09 08:01:25;;;;;;;8.73;6.05;;;25.20;60.70;;;;;;4983869;28;20111;-85
2022/07/09 08:03:50;;;;;;;7.57;5.15;;;25.30;60.90;;;;;;4981635;28;20019;-82
2022/07/09 08:06:16;;;;;;;12.95;5.07;;;25.30;60.00;;;;;;4999981;28;20049;-84
2022/07/09 08:08:42;;;;;;;9.32;5.10;;;25.10;60.30;;;;;;5003154;28;20050;-81
2022/07/09 08:11:08;;;;;;;5.18;4.60;;;24.90;61.50;;;;;;5001529;28;20081;-82
2022/07/09 08:13:34;;;;;;;8.27;5.00;;;24.90;61.90;;;;;;4990051;28;20023;-83
2022/07/09 08:16:01;;;;;;;8.60;5.35;;;24.80;62.40;;;;;;4980383;28;20046;-84
2022/07/09 08:18:27;;;;;;;5.53;3.97;;;24.90;62.50;;;;;;5000510;28;20034;-90
2022/07/09 08:20:53;;;;;;;6.72;3.58;;;25.00;62.70;;;;;;4999314;28;20022;-80
2022/07/09 08:23:19;;;;;;;8.70;3.85;;;24.80;63.80;;;;;;4985218;28;20025;-80
2022/07/09 08:25:45;;;;;;;10.02;4.50;;;24.60;64.70;;;;;;4984507;28;20042;-81
2022/07/09 08:28:11;;;;;;;7.05;3.70;;;24.60;65.50;;;;;;5000616;28;20030;-81
2022/07/09 08:30:37;;;;;;;10.13;4.80;;;24.60;65.00;;;;;;4980335;28;20401;-83
2022/07/09 08:33:02;;;;;;;7.70;3.75;;;24.70;64.70;;;;;;4994801;28;20099;-81
2022/07/09 08:35:29;;;;;;;7.25;3.45;;;24.70;64.70;;;;;;5001721;28;20018;-82
2022/07/09 08:37:55;;;;;;;4.25;3.38;;;24.50;64.60;;;;;;4986452;28;20023;-81
2022/07/09 08:40:23;;;;;;;7.60;4.03;;;24.20;64.80;;;;;;5008207;28;20042;-83
2022/07/09 08:42:49;;;;;;;4.05;3.03;;;24.10;65.80;;;;;;4992787;28;20026;-85
2022/07/09 08:45:17;;;;;;;5.43;2.92;;;23.90;64.90;;;;;;5001975;28;20034;-83
2022/07/09 08:47:43;;;;;;;5.68;3.08;;;23.80;64.90;;;;;;4990047;28;20078;-85
2022/07/09 08:50:10;;;;;;;4.25;3.15;;;23.70;64.00;;;;;;5012869;28;20050;-84
2022/07/09 08:52:39;;;;;;;5.30;2.95;;;23.70;64.30;;;;;;5003220;28;20538;-85
2022/07/09 08:55:07;;;;;;;6.43;3.55;;;23.70;64.70;;;;;;5009535;28;20026;-83
2022/07/09 08:57:33;;;;;;;6.30;3.63;;;23.60;65.60;;;;;;5010215;28;20018;-82
2022/07/09 09:00:04;;;;;;;6.97;4.00;;;23.80;66.40;;;;;;5001373;28;20036;-84
2022/07/09 09:02:40;;;;;;;7.20;4.45;;;23.90;67.00;;;;;;5000510;28;20022;-84
2022/07/09 09:05:17;;;;;;;18.43;5.57;;;24.00;66.70;;;;;;4983110;28;20051;-84
2022/07/09 09:07:43;;;;;;;10.40;4.93;;;24.20;66.10;;;;;;5000075;28;20045;-84
2022/07/09 09:10:21;;;;;;;9.23;4.03;;;24.40;66.00;;;;;;4995657;28;20542;-84
2022/07/09 09:12:47;;;;;;;7.55;4.13;;;24.60;66.80;;;;;;4999361;28;20140;-82
2022/07/09 09:15:18;;;;;;;11.07;4.68;;;24.80;66.70;;;;;;4995361;28;20026;-83
2022/07/09 09:17:44;;;;;;;9.90;4.07;;;25.00;67.20;;;;;;4999449;28;20031;-83
2022/07/09 09:20:14;;;;;;;4.68;4.22;;;25.10;66.50;;;;;;4999619;28;20045;-83
2022/07/09 09:22:47;;;;;;;6.95;4.18;;;25.20;65.00;;;;;;4992962;28;20049;-84
2022/07/09 09:25:21;;;;;;;9.00;4.28;;;25.10;65.40;;;;;;4984541;28;20039;-87
2022/07/09 09:27:55;;;;;;;5.53;4.03;;;24.90;64.70;;;;;;4998328;28;20102;-87
2022/07/09 09:30:22;;;;;;;12.30;4.95;;;24.60;66.30;;;;;;4980553;28;20101;-85
2022/07/09 09:32:59;;;;;;;6.28;3.97;;;24.60;67.50;;;;;;5003331;28;20026;-94
2022/07/09 09:35:26;;;;;;;;;;;24.70;67.60;;;;;;5002906;28;20022;-89
2022/07/09 09:37:52;;;;;;;;;;;24.80;67.40;;;;;;5003769;28;19961;-85
2022/07/09 09:40:18;;;;;;;7.90;4.50;;;25.00;67.60;;;;;;4998532;28;19940;-88
2022/07/09 09:42:48;;;;;;;7.32;4.70;;;25.00;66.10;;;;;;4995530;28;20014;-86
2022/07/09 09:45:17;;;;;;;4.95;3.92;;;25.10;66.00;;;;;;4998693;28;20041;-84
2022/07/09 09:47:49;;;;;;;7.85;4.70;;;24.90;65.20;;;;;;4984852;28;20485;-83
2022/07/09 09:50:19;;;;;;;23.08;7.07;;;24.80;66.40;;;;;;4988931;28;20038;-85
2022/07/09 09:52:47;;;;;;;41.95;10.35;;;24.70;66.70;;;;;;5000248;28;20023;-83
2022/07/09 09:55:14;;;;;;;10.13;5.70;;;24.70;68.30;;;;;;4982616;28;20038;-87
2022/07/09 09:57:40;;;;;;;;;;;24.60;67.40;;;;;;5002747;28;20044;-86
2022/07/09 10:00:06;;;;;;;9.55;5.97;;;24.10;68.00;;;;;;5002165;28;19921;-87
2022/07/09 10:02:35;;;;;;;10.23;6.83;;;23.80;70.70;;;;;;5002125;28;20019;-87
2022/07/09 10:05:02;;;;;;;10.60;6.40;;;23.90;72.10;;;;;;4999973;28;20745;-88
2022/07/09 10:07:29;;;;;;;11.00;6.45;;;24.00;74.10;;;;;;5002525;28;20023;-91
2022/07/09 10:10:00;;;;;;;8.73;6.28;;;24.20;70.20;;;;;;4999978;28;20026;-87
2022/07/09 10:12:30;;;;;;;8.40;6.10;;;24.40;70.00;;;;;;4998748;28;20109;-88
2022/07/09 10:14:57;;;;;;;9.25;7.05;;;24.70;69.30;;;;;;4979758;28;20015;-87
2022/07/09 10:17:25;;;;;;;11.15;6.68;;;24.70;68.60;;;;;;4978993;28;20038;-86
2022/07/09 10:20:10;;;;;;;;;;;24.60;68.80;;;;;;4988829;28;20496;-87
2022/07/09 10:22:41;;;;;;;11.40;7.45;;;24.60;69.10;;;;;;4998273;28;19970;-86
2022/07/09 10:25:09;;;;;;;12.23;7.70;;;24.40;69.30;;;;;;4995868;28;20038;-86
2022/07/09 10:27:45;;;;;;;10.35;7.35;;;24.20;70.50;;;;;;4996838;28;20048;-85
2022/07/09 10:30:35;;;;;;;11.18;7.38;;;24.20;71.20;;;;;;4978361;28;20022;-87
2022/07/09 10:33:31;;;;;;;12.07;7.93;;;24.30;70.80;;;;;;4998562;28;20283;-87
2022/07/09 10:35:58;;;;;;;12.57;7.95;;;24.60;70.60;;;;;;4985692;28;20057;-85
2022/07/09 10:38:36;;;;;;;12.05;7.80;;;24.80;70.30;;;;;;4996530;28;20022;-87
2022/07/09 10:41:03;;;;;;;11.10;8.32;;;25.20;69.40;;;;;;5000127;28;20031;-86
2022/07/09 10:43:44;;;;;;;;;;;25.30;68.80;;;;;;4994626;28;20014;-87
2022/07/09 10:46:14;;;;;;;12.88;9.00;;;25.50;69.00;;;;;;4994496;28;19948;-84
2022/07/09 10:48:41;;;;;;;14.52;9.63;;;25.40;68.20;;;;;;4982565;28;20026;-86
2022/07/09 10:51:07;;;;;;;14.15;10.05;;;25.30;68.80;;;;;;4995895;28;20032;-85
2022/07/09 10:53:33;;;;;;;12.25;10.10;;;25.20;68.70;;;;;;5002120;28;20066;-84
2022/07/09 10:55:59;;;;;;;10.80;9.48;;;25.40;68.30;;;;;;4996626;28;20074;-85
2022/07/09 10:58:25;;;;;;;16.23;9.55;;;25.60;68.00;;;;;;4997534;28;20105;-85
2022/07/09 11:00:56;;;;;;;10.98;7.68;;;25.80;67.40;;;;;;4995459;28;20046;-83
2022/07/09 11:03:31;;;;;;;11.02;5.07;;;25.80;63.40;;;;;;4994205;28;20027;-84
2022/07/09 11:05:58;;;;;;;4.32;3.38;;;25.80;60.70;;;;;;4977041;28;20041;-85
2022/07/09 11:08:24;;;;;;;7.88;3.90;;;25.50;56.90;;;;;;4987201;28;20087;-85
2022/07/09 11:10:50;;;;;;;3.50;3.17;;;25.10;58.10;;;;;;4993935;28;20492;-86
2022/07/09 11:13:16;;;;;;;5.15;3.30;;;24.80;58.00;;;;;;4994909;28;20025;-88
2022/07/09 11:15:42;;;;;;;9.02;3.72;;;24.60;58.70;;;;;;4994548;28;20027;-86
2022/07/09 11:18:10;;;;;;;8.63;4.20;;;24.50;59.50;;;;;;4994451;28;20086;-87
2022/07/09 11:20:40;;;;;;;3.58;3.10;;;24.80;59.20;;;;;;4994171;28;20030;-86
2022/07/09 11:23:08;;;;;;;3.35;2.55;;;25.00;58.60;;;;;;4980966;28;20763;-87
2022/07/09 11:25:34;;;;;;;5.60;3.00;;;25.00;58.10;;;;;;4998004;28;20062;-89
2022/07/09 11:28:00;;;;;;;7.13;4.22;;;24.80;58.70;;;;;;4998484;28;20026;-90
2022/07/09 11:30:29;;;;;;;6.15;4.30;;;24.80;59.80;;;;;;4994570;28;20030;-87
2022/07/09 11:32:55;;;;;;;8.35;4.90;;;24.80;61.10;;;;;;4994468;28;20031;-87
2022/07/09 11:35:28;;;;;;;5.67;5.10;;;24.90;61.50;;;;;;4996433;28;20962;-86
2022/07/09 11:37:59;;;;;;;9.10;5.22;;;25.10;61.60;;;;;;4994928;28;20022;-84
2022/07/09 11:40:25;;;;;;;6.93;5.22;;;25.20;62.20;;;;;;4993662;28;20384;-84
2022/07/09 11:42:52;;;;;;;7.75;5.70;;;25.40;62.30;;;;;;4994436;28;20026;-83
2022/07/09 11:45:28;;;;;;;13.93;8.48;;;25.60;63.00;;;;;;5010666;28;20488;-83
2022/07/09 11:48:05;;;;;;;9.68;7.90;;;25.40;65.30;;;;;;5002766;28;20380;-86
2022/07/09 11:50:33;;;;;;;8.57;6.53;;;25.30;66.00;;;;;;4993627;28;20118;-84
2022/07/09 11:52:58;;;;;;;10.82;7.65;;;25.20;66.40;;;;;;4988507;28;20011;-86
2022/07/09 11:55:32;;;;;;;7.57;6.65;;;25.20;66.40;;;;;;5004807;28;20089;-86
2022/07/09 11:57:59;;;;;;;10.20;7.93;;;25.20;66.20;;;;;;4987616;28;20019;-87
2022/07/09 12:00:30;;;;;;;8.48;7.22;;;25.10;66.90;;;;;;4995023;28;20112;-85
2022/07/09 12:02:59;;;;;;;10.13;6.57;;;25.10;66.80;;;;;;4997600;28;20026;-87
2022/07/09 12:05:32;;;;;;;9.20;8.13;;;25.00;65.90;;;;;;4997712;28;20054;-87
2022/07/09 12:08:01;;;;;;;11.05;7.32;;;25.00;67.00;;;;;;4997271;28;20058;-84
2022/07/09 12:10:33;;;;;;;10.93;8.38;;;25.10;67.50;;;;;;4997855;28;20057;-85
2022/07/09 12:13:00;;;;;;;11.73;7.88;;;25.30;66.80;;;;;;4994483;28;20026;-85
2022/07/09 12:15:27;;;;;;;12.55;8.32;;;25.10;67.50;;;;;;4997650;28;20018;-86
2022/07/09 12:17:54;;;;;;;8.88;7.50;;;25.00;68.10;;;;;;4997556;28;20049;-86
2022/07/09 12:20:26;;;;;;;10.98;6.47;;;25.10;67.70;;;;;;4998407;28;20027;-87
2022/07/09 12:22:52;;;;;;;9.23;6.50;;;25.20;65.60;;;;;;4983039;28;20057;-86
2022/07/09 12:25:19;;;;;;;8.07;5.65;;;25.10;65.20;;;;;;4975678;28;20030;-87
2022/07/09 12:27:46;;;;;;;6.28;5.40;;;25.10;64.90;;;;;;4990664;28;20033;-85
2022/07/09 12:30:12;;;;;;;8.93;4.57;;;25.10;64.50;;;;;;4997183;28;20038;-84
2022/07/09 12:32:39;;;;;;;5.93;5.20;;;25.10;63.10;;;;;;4992996;28;20030;-88
2022/07/09 12:35:05;;;;;;;10.95;5.20;;;25.00;63.10;;;;;;4997622;28;20276;-87
2022/07/09 12:37:31;;;;;;;10.27;5.80;;;25.10;62.80;;;;;;4980811;28;20495;-88
2022/07/09 12:39:57;;;;;;;5.43;4.65;;;25.20;62.50;;;;;;4998723;28;20014;-87
2022/07/09 12:42:23;;;;;;;5.25;3.70;;;25.30;60.80;;;;;;5002598;28;20026;-88
2022/07/09 12:44:52;;;;;;;5.57;4.63;;;25.40;60.50;;;;;;5009200;28;20026;-88
2022/07/09 12:47:18;;;;;;;6.38;4.55;;;25.50;60.00;;;;;;4982143;28;20022;-89
2022/07/09 12:49:44;;;;;;;5.53;4.68;;;25.70;59.60;;;;;;5005586;28;20029;-89
2022/07/09 12:52:10;;;;;;;4.32;3.92;;;25.80;59.40;;;;;;4999449;28;20444;-91
2022/07/09 12:54:37;;;;;;;6.75;4.60;;;25.80;58.30;;;;;;5001383;28;20033;-89
2022/07/09 12:57:03;;;;;;;8.30;4.32;;;25.70;58.10;;;;;;5001638;28;20026;-86
2022/07/09 12:59:29;;;;;;;6.05;4.05;;;25.60;58.10;;;;;;4976724;28;20477;-87
2022/07/09 13:01:55;;;;;;;4.53;3.83;;;25.80;58.70;;;;;;4996794;28;20054;-90
2022/07/09 13:04:27;;;;;;;5.90;3.75;;;26.00;59.00;;;;;;5006291;28;20019;-83
2022/07/09 13:06:53;;;;;;;7.03;3.80;;;26.00;58.30;;;;;;4996534;28;20093;-85
2022/07/09 13:09:19;;;;;;;7.22;5.03;;;26.10;57.90;;;;;;4991105;28;20015;-84
2022/07/09 13:11:45;;;;;;;6.22;3.83;;;25.90;57.60;;;;;;4991028;28;20034;-85
2022/07/09 13:14:11;;;;;;;4.82;4.32;;;25.50;58.30;;;;;;4995556;28;20522;-85
2022/07/09 13:16:37;;;;;;;5.43;4.93;;;25.30;59.40;;;;;;4990454;28;20419;-86
2022/07/09 13:19:04;;;;;;;6.95;4.60;;;25.00;59.90;;;;;;4969269;28;20114;-86
2022/07/09 13:21:31;;;;;;;7.43;5.18;;;24.90;60.60;;;;;;4976135;28;20181;-83
2022/07/09 13:23:57;;;;;;;6.90;5.10;;;24.80;61.50;;;;;;4966193;28;20516;-86
2022/07/09 13:26:26;;;;;;;8.27;5.68;;;24.70;62.00;;;;;;4973977;28;20427;-91
2022/07/09 13:28:56;;;;;;;7.60;4.97;;;24.60;62.90;;;;;;4979447;28;20027;-93
2022/07/09 13:31:24;;;;;;;8.48;5.25;;;24.60;63.20;;;;;;4958376;28;20027;-94
2022/07/09 13:33:50;;;;;;;7.30;5.68;;;24.50;63.70;;;;;;4937532;28;20112;-87
2022/07/09 13:36:17;;;;;;;6.65;4.90;;;24.50;64.00;;;;;;4973274;28;20030;-87
2022/07/09 13:38:43;;;;;;;5.88;4.85;;;24.60;64.00;;;;;;4971085;28;20584;-87
2022/07/09 13:41:09;;;;;;;6.05;5.45;;;25.50;62.80;;;;;;4975831;28;20096;-86
2022/07/09 13:43:35;;;;;;;5.85;5.25;;;26.60;60.70;;;;;;4952234;28;20131;-89
2022/07/09 13:46:01;;;;;;;7.65;5.22;;;27.80;58.90;;;;;;4975218;28;20049;-85
2022/07/09 13:48:27;;;;;;;8.97;6.43;;;;;;;;;;4964077;28;20086;-87
2022/07/09 13:50:53;;;;;;;11.68;5.18;;;29.50;54.50;;;;;;4968900;28;20123;-88
2022/07/09 13:53:20;;;;;;;5.80;4.93;;;30.00;53.20;;;;;;4975392;28;20461;-87
2022/07/09 13:55:46;;;;;;;10.13;5.95;;;30.40;52.40;;;;;;4972429;28;20019;-86
2022/07/09 13:58:12;;;;;;;7.40;4.90;;;30.70;51.70;;;;;;4965132;28;20031;-86